Time;durP1;ratioP1;P1;durP2;ratioP2;P2;SDS_P1;SDS_P2;PMS_P1;PMS_P2;Temp;Humidity;BMP_temperature;BMP_pressure;BME280_temperature;BME280_humidity;BME280_pressure;Samples;Min_cycle;Max_cycle;Signal;HPM_P1;HPM_P2
2023/08/27 00:01:40;;;;;;;11.30;10.20;;;;;;;20.30;90.49;99973.55;103892;276;172122;-74
2023/08/27 00:04:14;;;;;;;11.70;10.20;;;;;;;20.29;90.57;99970.54;104062;276;38837;-73
2023/08/27 00:06:48;;;;;;;11.10;9.70;;;;;;;20.20;89.95;99968.27;103997;276;38313;-71
2023/08/27 00:09:23;;;;;;;10.70;9.50;;;;;;;20.15;90.44;99967.94;104087;275;38240;-72
2023/08/27 00:11:57;;;;;;;11.10;9.40;;;;;;;20.16;90.76;99960.31;103861;265;38299;-72
2023/08/27 00:14:32;;;;;;;10.60;9.50;;;;;;;20.14;90.61;99950.73;104050;276;38234;-73
2023/08/27 00:17:09;;;;;;;10.80;9.30;;;;;;;20.10;90.51;99940.75;104009;276;38444;-72
2023/08/27 00:19:43;;;;;;;11.00;9.80;;;;;;;20.05;90.62;99936.36;104044;276;38253;-74
2023/08/27 00:22:17;;;;;;;11.50;10.30;;;;;;;20.03;90.83;99938.81;104044;276;38956;-72
2023/08/27 00:24:51;;;;;;;11.00;9.90;;;;;;;20.02;90.88;99950.86;104028;276;38264;-70
2023/08/27 00:27:25;;;;;;;11.20;10.20;;;;;;;20.01;91.14;99954.81;104052;276;39117;-74
2023/08/27 00:30:00;;;;;;;10.90;9.80;;;;;;;20.02;91.44;99964.30;104063;275;38488;-73
2023/08/27 00:32:35;;;;;;;10.80;9.80;;;;;;;20.01;91.22;99965.94;104017;276;38734;-71
2023/08/27 00:35:11;;;;;;;10.70;9.70;;;;;;;19.99;91.35;99973.93;104057;276;38672;-73
2023/08/27 00:37:45;;;;;;;10.20;9.30;;;;;;;19.99;91.45;99971.81;104043;276;39426;-71
2023/08/27 00:40:19;;;;;;;11.70;10.10;;;;;;;19.99;92.10;99976.17;104036;265;38706;-71
2023/08/27 00:42:54;;;;;;;11.20;9.80;;;;;;;20.03;92.42;99987.89;104043;276;39465;-74
2023/08/27 00:45:28;;;;;;;10.80;9.70;;;;;;;20.05;92.12;99999.11;104048;276;38415;-73
2023/08/27 00:48:02;;;;;;;13.10;10.20;;;;;;;20.05;92.24;100017.17;104074;276;38429;-72
2023/08/27 00:50:38;;;;;;;10.80;9.70;;;;;;;20.05;92.22;100024.39;104030;276;38450;-73
2023/08/27 00:53:13;;;;;;;11.40;10.30;;;;;;;20.06;92.28;100026.11;104033;276;38424;-74
2023/08/27 00:55:47;;;;;;;13.70;10.00;;;;;;;20.06;92.36;100018.68;103878;276;38819;-74
2023/08/27 00:58:21;;;;;;;12.20;9.90;;;;;;;20.06;92.60;100014.75;104040;276;38283;-73
2023/08/27 01:00:55;;;;;;;14.70;10.50;;;;;;;20.06;92.44;100014.55;104041;276;38255;-73
2023/08/27 01:03:29;;;;;;;11.70;10.50;;;;;;;20.05;92.55;100015.38;104066;276;39874;-73
2023/08/27 01:06:04;;;;;;;10.70;9.50;;;;;;;20.05;92.56;100007.41;103985;276;39290;-71
2023/08/27 01:08:57;;;;;;;11.20;10.10;;;;;;;20.05;92.70;99998.75;104008;276;38396;-73
2023/08/27 01:11:42;;;;;;;12.30;10.40;;;;;;;20.04;92.78;99998.27;104053;276;39635;-72
2023/08/27 01:14:16;;;;;;;11.00;9.90;;;;;;;20.04;92.78;99995.60;104030;276;39763;-73
2023/08/27 01:16:51;;;;;;;11.90;9.90;;;;;;;20.06;92.99;99995.69;103982;275;38307;-73
2023/08/27 01:19:25;;;;;;;11.50;10.30;;;;;;;20.04;92.56;99984.95;103894;276;39402;-72
2023/08/27 01:21:59;;;;;;;11.40;10.30;;;;;;;20.05;92.45;99993.07;104023;276;38371;-72
2023/08/27 01:24:33;;;;;;;10.70;9.70;;;;;;;20.02;92.33;99996.81;103921;276;174893;-71
2023/08/27 01:27:11;;;;;;;11.60;9.60;;;;;;;19.99;92.39;100003.66;104041;276;38620;-72
2023/08/27 01:29:49;;;;;;;11.30;10.00;;;;;;;19.99;92.64;100002.77;104036;276;38397;-75
2023/08/27 01:32:28;;;;;;;11.10;9.60;;;;;;;19.96;92.35;100001.77;103928;278;39485;-73
2023/08/27 01:35:03;;;;;;;11.40;9.30;;;;;;;19.93;92.48;100009.27;104023;276;38544;-74
2023/08/27 01:37:37;;;;;;;10.80;9.70;;;;;;;19.92;92.84;100015.05;104055;276;38419;-75
2023/08/27 01:40:13;;;;;;;12.00;9.30;;;;;;;19.92;92.94;100017.34;104010;275;39551;-74
2023/08/27 01:42:47;;;;;;;9.80;8.90;;;;;;;19.95;93.59;100021.05;104133;275;38508;-73
2023/08/27 01:45:23;;;;;;;10.90;8.80;;;;;;;19.95;93.42;100029.30;104082;272;39354;-72
2023/08/27 01:47:57;;;;;;;10.40;9.10;;;;;;;19.97;93.84;100041.52;104044;276;37922;-74
2023/08/27 01:50:32;;;;;;;10.00;8.50;;;;;;;20.00;94.07;100052.28;103936;275;174820;-75
2023/08/27 01:53:06;;;;;;;9.10;8.30;;;;;;;20.01;93.95;100060.52;104043;276;38744;-71
2023/08/27 01:55:44;;;;;;;10.30;8.80;;;;;;;20.03;93.90;100065.84;103815;276;38400;-70
2023/08/27 01:58:18;;;;;;;9.90;8.50;;;;;;;20.05;94.13;100066.92;104040;276;38386;-72
2023/08/27 02:00:54;;;;;;;9.90;8.20;;;;;;;20.04;93.75;100067.13;104046;276;39909;-72
2023/08/27 02:03:28;;;;;;;9.10;7.80;;;;;;;20.03;93.49;100063.02;104052;276;38746;-70
2023/08/27 02:06:03;;;;;;;9.20;7.90;;;;;;;20.02;93.84;100060.44;104060;276;38360;-72
2023/08/27 02:08:37;;;;;;;8.50;7.50;;;;;;;20.02;93.94;100053.15;104066;275;38240;-73
2023/08/27 02:11:11;;;;;;;9.80;7.80;;;;;;;20.03;93.99;100045.65;104026;275;38516;-74
2023/08/27 02:13:45;;;;;;;9.20;7.20;;;;;;;20.02;93.81;100039.20;104057;275;38270;-71
2023/08/27 02:16:19;;;;;;;8.60;7.40;;;;;;;20.00;93.96;100041.61;104047;276;39464;-71
2023/08/27 02:18:53;;;;;;;8.00;7.30;;;;;;;20.00;94.17;100037.77;104032;275;39629;-73
2023/08/27 02:21:27;;;;;;;9.20;7.60;;;;;;;20.01;94.58;100030.58;104027;276;39996;-71
2023/08/27 02:24:01;;;;;;;11.00;7.80;;;;;;;20.04;94.53;100027.71;104102;276;39366;-73
2023/08/27 02:26:35;;;;;;;9.00;7.80;;;;;;;20.02;94.40;100029.99;104046;276;39323;-73
2023/08/27 02:29:09;;;;;;;8.90;7.30;;;;;;;20.00;94.75;100037.02;104085;276;38368;-73
2023/08/27 02:31:43;;;;;;;11.00;7.10;;;;;;;20.03;95.00;100043.14;104011;276;39311;-74
2023/08/27 02:34:16;;;;;;;8.30;7.10;;;;;;;20.05;94.97;100041.92;104087;275;39652;-73
2023/08/27 02:36:50;;;;;;;8.80;7.40;;;;;;;20.06;94.95;100037.24;103997;276;38024;-72
2023/08/27 02:39:24;;;;;;;9.90;7.00;;;;;;;20.05;94.99;100035.91;103848;276;38879;-74
2023/08/27 02:41:58;;;;;;;9.30;7.10;;;;;;;20.05;94.99;100040.18;104028;276;38845;-73
2023/08/27 02:44:33;;;;;;;9.20;6.40;;;;;;;20.01;94.50;100041.17;104047;275;39449;-72
2023/08/27 02:47:08;;;;;;;11.30;7.20;;;;;;;19.98;94.62;100030.27;104029;276;38303;-72
2023/08/27 02:49:43;;;;;;;9.10;7.10;;;;;;;19.98;95.07;100023.42;104036;276;38262;-72
2023/08/27 02:52:17;;;;;;;9.20;6.70;;;;;;;19.97;95.03;100018.83;104047;275;38833;-72
2023/08/27 02:54:51;;;;;;;8.90;6.70;;;;;;;19.98;95.19;100021.85;104013;275;37232;-73
2023/08/27 02:57:25;;;;;;;7.40;6.70;;;;;;;19.98;95.15;100029.92;104077;275;38696;-72
2023/08/27 02:59:59;;;;;;;8.90;6.90;;;;;;;19.97;95.30;100031.46;104004;275;38244;-72
2023/08/27 03:02:32;;;;;;;9.60;7.40;;;;;;;19.98;95.28;100025.02;104070;276;38485;-72
2023/08/27 03:05:08;;;;;;;8.60;6.40;;;;;;;19.97;95.05;100022.77;103992;276;39640;-73
2023/08/27 03:07:42;;;;;;;8.40;6.90;;;;;;;19.94;94.88;100014.92;103864;278;38851;-73
2023/08/27 03:10:17;;;;;;;8.30;6.90;;;;;;;19.93;95.17;100012.87;104042;275;38663;-73
2023/08/27 03:12:51;;;;;;;7.60;6.90;;;;;;;19.92;95.11;100010.60;104083;275;39055;-73
2023/08/27 03:15:25;;;;;;;9.30;6.40;;;;;;;19.90;95.03;100004.21;104079;275;38741;-73
2023/08/27 03:17:59;;;;;;;6.80;6.20;;;;;;;19.89;95.00;100002.55;104073;275;39096;-73
2023/08/27 03:20:33;;;;;;;8.60;6.30;;;;;;;19.85;94.75;100003.08;104039;275;38518;-73
2023/08/27 03:23:07;;;;;;;7.50;6.60;;;;;;;19.82;94.78;99997.94;104045;275;39785;-74
2023/08/27 03:25:41;;;;;;;6.40;5.80;;;;;;;19.80;94.91;99990.84;104026;275;40284;-74
2023/08/27 03:28:15;;;;;;;8.70;6.00;;;;;;;19.77;94.50;99984.20;104054;275;38241;-74
2023/08/27 03:30:49;;;;;;;7.00;6.20;;;;;;;19.70;94.34;99973.16;103857;277;38729;-74
2023/08/27 03:33:23;;;;;;;8.60;6.20;;;;;;;19.67;94.43;99961.38;104046;275;38661;-73
2023/08/27 03:35:58;;;;;;;11.10;6.10;;;;;;;19.63;94.49;99957.41;104010;275;38262;-72
2023/08/27 03:38:32;;;;;;;7.10;6.30;;;;;;;19.62;94.47;99956.98;104038;275;38620;-70
2023/08/27 03:41:06;;;;;;;7.20;6.00;;;;;;;19.58;94.76;99950.03;103995;275;38524;-70
2023/08/27 03:43:40;;;;;;;6.80;5.90;;;;;;;19.56;95.07;99946.27;104053;276;38239;-72
2023/08/27 03:46:14;;;;;;;7.80;6.10;;;;;;;19.57;95.15;99944.98;104030;275;38249;-72
2023/08/27 03:48:48;;;;;;;10.10;6.60;;;;;;;19.59;95.55;99942.16;104091;275;39683;-73
2023/08/27 03:51:22;;;;;;;8.20;6.30;;;;;;;19.61;95.38;99940.30;104070;275;38244;-74
2023/08/27 03:53:59;;;;;;;10.10;6.80;;;;;;;19.62;95.48;99935.64;104043;276;39728;-71
2023/08/27 03:56:33;;;;;;;6.60;5.60;;;;;;;19.63;95.74;99933.91;104072;276;39036;-72
2023/08/27 03:59:07;;;;;;;7.30;6.70;;;;;;;19.64;95.76;99931.73;104027;276;38256;-74
2023/08/27 04:01:41;;;;;;;9.00;5.80;;;;;;;19.63;95.54;99935.52;104050;276;39428;-72
2023/08/27 04:04:15;;;;;;;7.80;6.90;;;;;;;19.63;95.35;99933.05;104070;276;39438;-72
2023/08/27 04:06:49;;;;;;;7.40;6.60;;;;;;;19.61;95.27;99925.27;103862;276;38268;-72
2023/08/27 04:09:22;;;;;;;7.90;6.50;;;;;;;19.57;95.17;99921.05;104068;276;38596;-72
2023/08/27 04:11:57;;;;;;;7.70;6.10;;;;;;;19.52;94.74;99915.46;104028;276;38155;-74
2023/08/27 04:14:51;;;;;;;8.30;7.50;;;;;;;19.47;95.06;99917.35;104038;276;38667;-73
2023/08/27 04:17:46;;;;;;;10.00;7.40;;;;;;;19.50;95.66;99922.02;104083;276;38476;-74
2023/08/27 04:20:40;;;;;;;8.20;6.70;;;;;;;19.53;95.71;99924.64;104040;276;38270;-74
2023/08/27 04:23:14;;;;;;;7.60;6.90;;;;;;;19.53;95.59;99931.67;104076;276;38700;-73
2023/08/27 04:25:48;;;;;;;7.90;7.10;;;;;;;19.53;95.52;99941.06;104024;276;38233;-72
2023/08/27 04:28:23;;;;;;;7.70;6.90;;;;;;;19.52;95.70;99945.36;103886;277;38306;-73
2023/08/27 04:30:57;;;;;;;8.20;6.70;;;;;;;19.53;95.71;99953.99;104042;276;39013;-72
2023/08/27 04:33:31;;;;;;;7.30;6.70;;;;;;;19.53;96.05;99953.21;104067;276;38482;-73
2023/08/27 04:36:06;;;;;;;7.10;6.50;;;;;;;19.58;96.41;99950.92;104030;276;39690;-73
2023/08/27 04:38:40;;;;;;;9.10;7.00;;;;;;;19.63;96.59;99949.29;104011;276;38522;-74
2023/08/27 04:41:14;;;;;;;7.80;6.30;;;;;;;19.68;96.78;99948.85;103844;276;39402;-73
2023/08/27 04:43:48;;;;;;;6.90;6.30;;;;;;;19.72;96.75;99941.83;104027;276;38715;-73
2023/08/27 04:46:22;;;;;;;7.50;6.70;;;;;;;19.78;97.19;99946.64;103821;277;39368;-73
2023/08/27 04:48:56;;;;;;;7.70;6.90;;;;;;;19.84;97.28;99949.48;104051;276;38283;-70
2023/08/27 04:51:30;;;;;;;7.50;6.80;;;;;;;19.91;97.09;99951.61;104025;275;38366;-72
2023/08/27 04:54:04;;;;;;;8.80;6.90;;;;;;;19.94;97.06;99946.70;104084;275;39257;-72
2023/08/27 04:56:38;;;;;;;8.20;6.70;;;;;;;19.97;96.70;99946.85;104076;276;39397;-72
2023/08/27 04:59:12;;;;;;;7.90;6.70;;;;;;;19.98;96.63;99943.35;104081;275;39284;-72
2023/08/27 05:01:46;;;;;;;8.10;6.10;;;;;;;19.98;96.19;99947.60;104061;276;39429;-72
2023/08/27 05:04:20;;;;;;;8.20;6.70;;;;;;;19.94;95.76;99946.94;104042;276;38499;-71
2023/08/27 05:06:54;;;;;;;8.40;7.20;;;;;;;19.91;95.83;99943.95;104019;276;38392;-73
2023/08/27 05:09:29;;;;;;;7.50;6.70;;;;;;;19.91;95.89;99939.17;104085;275;38412;-72
2023/08/27 05:12:05;;;;;;;7.50;6.80;;;;;;;19.87;95.29;99934.25;104030;276;40017;-72
2023/08/27 05:14:38;;;;;;;7.70;6.90;;;;;;;19.79;95.16;99939.61;104077;275;39828;-74
2023/08/27 05:17:12;;;;;;;9.20;6.70;;;;;;;19.75;95.33;99943.66;104069;276;39533;-73
2023/08/27 05:19:48;;;;;;;8.70;7.20;;;;;;;19.73;95.73;99949.17;103841;276;39707;-74
2023/08/27 05:22:22;;;;;;;7.60;6.80;;;;;;;19.73;96.05;99952.66;104084;276;40040;-72
2023/08/27 05:24:56;;;;;;;9.10;8.20;;;;;;;19.80;96.74;99949.07;104042;275;38686;-71
2023/08/27 05:27:29;;;;;;;8.40;7.50;;;;;;;19.92;97.41;99944.60;104096;276;38495;-74
2023/08/27 05:30:04;;;;;;;8.70;7.90;;;;;;;20.04;98.03;99946.92;104041;275;39113;-72
2023/08/27 05:32:39;;;;;;;9.00;8.20;;;;;;;20.19;98.38;99949.95;104072;276;38477;-72
2023/08/27 05:35:13;;;;;;;10.00;9.00;;;;;;;20.34;99.07;99953.80;103988;275;39628;-73
2023/08/27 05:37:47;;;;;;;9.20;8.20;;;;;;;20.54;99.91;99959.17;104041;276;38272;-73
2023/08/27 05:40:22;;;;;;;9.80;8.50;;;;;;;20.85;100.00;99966.23;104022;276;39789;-72
2023/08/27 05:42:56;;;;;;;9.60;8.40;;;;;;;21.60;100.00;99959.42;103886;265;38396;-74
2023/08/27 05:45:30;;;;;;;9.00;7.50;;;;;;;22.70;100.00;99958.04;104028;276;38319;-74
2023/08/27 05:48:04;;;;;;;9.00;7.40;;;;;;;23.82;99.50;99961.19;104064;276;38275;-73
2023/08/27 05:50:38;;;;;;;7.80;7.00;;;;;;;24.76;95.53;99965.59;104017;276;38399;-73
2023/08/27 05:53:14;;;;;;;7.30;6.60;;;;;;;25.72;91.93;99954.83;104061;275;38502;-75
2023/08/27 05:55:49;;;;;;;8.60;6.80;;;;;;;26.65;84.01;99944.29;104016;276;40097;-75
2023/08/27 05:58:23;;;;;;;7.20;6.10;;;;;;;27.44;78.38;99944.90;104046;276;38355;-74
2023/08/27 06:00:57;;;;;;;6.50;5.90;;;;;;;27.90;73.71;99942.64;104035;276;38952;-74
2023/08/27 06:03:31;;;;;;;6.80;5.40;;;;;;;28.08;69.85;99935.42;104046;275;38617;-74
2023/08/27 06:06:06;;;;;;;6.60;5.50;;;;;;;28.29;67.12;99935.47;103894;276;174075;-72
2023/08/27 06:08:41;;;;;;;6.60;5.60;;;;;;;28.56;64.92;99935.14;104007;276;38869;-72
2023/08/27 06:11:15;;;;;;;6.60;5.30;;;;;;;28.83;63.63;99933.36;104025;275;39648;-72
2023/08/27 06:13:49;;;;;;;6.10;4.90;;;;;;;29.19;62.00;99933.52;104086;275;38337;-72
2023/08/27 06:16:23;;;;;;;5.90;5.30;;;;;;;29.77;60.03;99929.20;104065;276;38329;-73
2023/08/27 06:18:58;;;;;;;7.40;5.40;;;;;;;30.16;58.67;99923.04;104096;276;39388;-73
2023/08/27 06:21:32;;;;;;;6.20;5.40;;;;;;;30.41;56.95;99918.23;103838;276;38440;-72
2023/08/27 06:24:07;;;;;;;7.10;5.30;;;;;;;30.46;56.60;99917.92;103973;275;174028;-74
2023/08/27 06:26:44;;;;;;;6.00;5.40;;;;;;;30.17;54.59;99917.84;104051;276;39022;-74
2023/08/27 06:29:18;;;;;;;6.30;5.00;;;;;;;29.72;54.89;99906.67;104049;276;39660;-74
2023/08/27 06:31:52;;;;;;;5.10;4.70;;;;;;;29.36;55.24;99905.41;103802;277;38264;-74
2023/08/27 06:34:26;;;;;;;6.40;5.00;;;;;;;29.01;55.45;99912.19;104022;275;39779;-76
2023/08/27 06:37:00;;;;;;;6.30;4.80;;;;;;;28.65;55.85;99912.51;104024;276;39780;-74
2023/08/27 06:39:36;;;;;;;5.50;4.90;;;;;;;28.38;56.31;99920.59;104040;276;39579;-75
2023/08/27 06:42:12;;;;;;;9.60;5.50;;;;;;;28.08;56.08;99923.14;104037;276;38402;-75
2023/08/27 06:44:46;;;;;;;6.20;5.00;;;;;;;27.78;56.80;99918.94;103982;276;39514;-73
2023/08/27 06:47:20;;;;;;;7.10;5.10;;;;;;;27.59;57.89;99918.87;104072;275;38805;-74
2023/08/27 06:49:56;;;;;;;5.80;5.20;;;;;;;27.41;58.85;99923.09;103999;276;39600;-74
2023/08/27 06:52:29;;;;;;;7.30;5.40;;;;;;;27.27;59.60;99920.92;104053;275;38605;-74
2023/08/27 06:55:04;;;;;;;6.70;5.70;;;;;;;27.14;59.18;99915.39;104058;275;40136;-74
2023/08/27 06:57:38;;;;;;;6.80;5.00;;;;;;;26.97;58.78;99914.88;104115;276;38244;-74
2023/08/27 07:00:14;;;;;;;6.60;4.90;;;;;;;26.79;59.40;99918.02;104005;275;39572;-75
2023/08/27 07:02:49;;;;;;;6.90;4.80;;;;;;;26.66;59.92;99917.66;104089;275;38917;-72
2023/08/27 07:05:23;;;;;;;6.40;5.30;;;;;;;26.60;60.22;99917.81;103435;278;482756;-72
2023/08/27 07:07:58;;;;;;;6.80;5.10;;;;;;;26.54;59.89;99921.39;104059;276;40061;-72
2023/08/27 07:10:32;;;;;;;6.60;5.40;;;;;;;26.49;60.24;99930.66;104035;275;38654;-72
2023/08/27 07:13:06;;;;;;;6.00;5.50;;;;;;;26.46;60.66;99930.67;104091;275;38479;-72
2023/08/27 07:15:40;;;;;;;6.60;5.70;;;;;;;26.47;60.67;99920.55;104014;276;38253;-74
2023/08/27 07:18:15;;;;;;;6.30;5.50;;;;;;;26.54;61.14;99901.06;104053;275;38259;-74
2023/08/27 07:20:49;;;;;;;7.00;5.60;;;;;;;26.65;60.95;99890.63;104017;275;39669;-74
2023/08/27 07:23:23;;;;;;;6.10;5.20;;;;;;;26.81;61.21;99889.71;104028;276;38236;-73
2023/08/27 07:25:57;;;;;;;6.60;5.30;;;;;;;27.15;60.77;99899.40;104020;275;38534;-73
2023/08/27 07:28:32;;;;;;;6.10;5.50;;;;;;;27.53;58.50;99905.75;104063;276;38224;-73
2023/08/27 07:31:05;;;;;;;5.80;5.10;;;;;;;27.85;58.73;99909.92;104057;275;38539;-73
2023/08/27 07:33:39;;;;;;;5.40;4.90;;;;;;;28.18;57.06;99913.94;104031;276;38325;-74
2023/08/27 07:36:13;;;;;;;6.00;5.40;;;;;;;28.30;55.99;99913.30;103904;275;171675;-74
2023/08/27 07:38:47;;;;;;;6.30;5.60;;;;;;;28.27;54.94;99920.48;104034;276;39678;-73
2023/08/27 07:41:22;;;;;;;7.70;5.30;;;;;;;28.19;55.18;99921.61;103898;275;174413;-73
2023/08/27 07:43:55;;;;;;;9.80;6.30;;;;;;;28.12;55.36;99919.26;103995;276;38447;-73
2023/08/27 07:46:30;;;;;;;8.90;5.50;;;;;;;28.04;55.17;99913.88;104021;275;39387;-72
2023/08/27 07:49:04;;;;;;;7.80;5.40;;;;;;;28.04;55.75;99913.15;104088;276;38712;-73
2023/08/27 07:51:38;;;;;;;6.80;4.50;;;;;;;28.35;56.39;99915.23;103999;276;39577;-73
2023/08/27 07:54:12;;;;;;;5.00;4.50;;;;;;;28.84;54.99;99913.61;104005;276;39587;-74
2023/08/27 07:56:46;;;;;;;6.80;4.30;;;;;;;29.44;52.33;99915.77;104007;276;38688;-74
2023/08/27 07:59:20;;;;;;;6.60;4.30;;;;;;;30.15;51.48;99919.91;103895;277;40843;-75
2023/08/27 08:01:54;;;;;;;5.90;4.90;;;;;;;30.86;48.45;99929.55;104034;276;39202;-74
2023/08/27 08:04:29;;;;;;;5.80;4.70;;;;;;;31.38;46.87;99929.40;104069;276;39678;-75
2023/08/27 08:07:04;;;;;;;5.60;4.70;;;;;;;31.84;46.02;99930.77;104002;276;39063;-75
2023/08/27 08:09:38;;;;;;;6.70;5.00;;;;;;;32.66;46.02;99927.55;104054;276;39813;-75
2023/08/27 08:12:12;;;;;;;7.80;4.90;;;;;;;33.31;44.60;99920.96;103898;276;39567;-75
2023/08/27 08:14:46;;;;;;;5.80;4.60;;;;;;;33.90;43.21;99911.49;103977;276;39415;-73
2023/08/27 08:17:20;;;;;;;6.90;5.20;;;;;;;34.27;41.34;99904.33;104018;276;39112;-75
2023/08/27 08:19:54;;;;;;;7.80;5.50;;;;;;;34.72;39.70;99898.34;104030;276;38756;-74
2023/08/27 08:22:29;;;;;;;9.20;5.60;;;;;;;35.19;38.70;99894.65;104040;276;38858;-75
2023/08/27 08:25:04;;;;;;;8.10;5.80;;;;;;;35.69;38.25;99889.33;104009;276;38550;-74
2023/08/27 08:27:38;;;;;;;7.90;5.30;;;;;;;36.07;36.25;99878.19;104076;275;39682;-75
2023/08/27 08:30:14;;;;;;;6.20;4.00;;;;;;;36.43;34.43;99879.13;104015;276;38895;-75
2023/08/27 08:32:48;;;;;;;5.80;3.70;;;;;;;36.54;33.50;99883.61;104025;276;39704;-75
2023/08/27 08:35:22;;;;;;;4.70;3.50;;;;;;;36.85;33.52;99885.52;104002;276;38474;-75
2023/08/27 08:37:56;;;;;;;5.40;3.50;;;;;;;37.21;33.62;99882.62;104036;275;39103;-76
2023/08/27 08:40:29;;;;;;;6.50;3.60;;;;;;;37.45;32.69;99879.86;104028;276;38578;-75
2023/08/27 08:43:03;;;;;;;6.00;3.70;;;;;;;37.68;32.87;99872.92;104087;275;38377;-76
2023/08/27 08:45:41;;;;;;;5.80;3.40;;;;;;;38.08;32.47;99881.60;104041;276;39450;-76
2023/08/27 08:48:15;;;;;;;4.60;3.40;;;;;;;38.42;32.42;99884.29;104064;275;39423;-76
2023/08/27 08:50:49;;;;;;;5.20;3.80;;;;;;;38.66;31.77;99883.12;104058;275;38240;-75
2023/08/27 08:53:25;;;;;;;4.20;3.70;;;;;;;38.27;31.26;99883.14;104033;276;38107;-76
2023/08/27 08:56:01;;;;;;;5.60;4.50;;;;;;;37.88;31.47;99877.73;104040;276;38588;-76
2023/08/27 08:58:37;;;;;;;6.10;4.10;;;;;;;37.58;32.50;99867.73;104058;276;39443;-76
2023/08/27 09:01:12;;;;;;;4.80;4.20;;;;;;;37.70;32.48;99868.27;103989;275;39464;-75
2023/08/27 09:03:46;;;;;;;4.90;4.30;;;;;;;37.32;32.30;99873.17;104057;276;38714;-75
2023/08/27 09:06:22;;;;;;;5.10;4.60;;;;;;;36.76;33.04;99868.43;104008;276;38735;-75
2023/08/27 09:08:56;;;;;;;5.70;4.80;;;;;;;36.90;33.98;99860.14;103873;275;38770;-75
2023/08/27 09:11:30;;;;;;;4.50;4.20;;;;;;;37.28;33.39;99855.24;104058;276;38274;-76
2023/08/27 09:14:04;;;;;;;5.50;4.30;;;;;;;37.17;33.64;99845.55;104089;276;39653;-75
2023/08/27 09:16:38;;;;;;;5.70;4.70;;;;;;;37.08;33.67;99839.34;104035;276;38419;-76
2023/08/27 09:19:13;;;;;;;4.80;4.40;;;;;;;36.68;33.65;99841.92;104092;276;38808;-75
2023/08/27 09:21:47;;;;;;;4.60;4.00;;;;;;;36.26;34.96;99847.65;103856;276;39660;-75
2023/08/27 09:24:24;;;;;;;4.60;3.80;;;;;;;36.15;34.55;99849.48;104075;276;40092;-75
2023/08/27 09:26:58;;;;;;;4.20;3.90;;;;;;;35.81;34.26;99860.46;103827;277;39586;-74
2023/08/27 09:29:33;;;;;;;4.80;4.10;;;;;;;35.34;34.85;99863.34;104015;276;38267;-74
2023/08/27 09:32:09;;;;;;;5.20;4.60;;;;;;;35.05;35.52;99860.37;104000;276;38503;-74
2023/08/27 09:34:44;;;;;;;4.90;4.50;;;;;;;34.65;35.85;99847.41;104020;276;38267;-75
2023/08/27 09:37:18;;;;;;;4.80;4.40;;;;;;;34.40;37.57;99846.18;104040;264;38745;-75
2023/08/27 09:39:52;;;;;;;4.70;4.30;;;;;;;34.50;37.84;99840.61;104029;276;39111;-75
2023/08/27 09:42:26;;;;;;;4.80;4.40;;;;;;;34.77;36.90;99831.75;104074;276;38311;-75
2023/08/27 09:45:00;;;;;;;5.70;4.50;;;;;;;34.66;36.03;99824.29;104051;276;39483;-74
2023/08/27 09:47:35;;;;;;;5.40;4.30;;;;;;;34.40;36.82;99824.20;104048;276;38282;-75
2023/08/27 09:50:17;;;;;;;4.90;4.20;;;;;;;34.42;37.96;99822.63;103863;276;40715;-74
2023/08/27 09:52:51;;;;;;;4.50;4.10;;;;;;;34.42;37.33;99820.96;104027;276;39471;-74
2023/08/27 09:55:25;;;;;;;5.20;4.50;;;;;;;34.34;37.58;99818.28;103997;276;39590;-74
2023/08/27 09:57:59;;;;;;;4.40;3.80;;;;;;;34.22;37.37;99816.89;104118;276;39558;-74
2023/08/27 10:00:35;;;;;;;5.80;3.60;;;;;;;34.12;37.56;99809.14;104030;276;38784;-74
2023/08/27 10:03:11;;;;;;;3.90;3.60;;;;;;;33.92;37.56;99804.39;104069;276;39982;-75
2023/08/27 10:05:45;;;;;;;5.80;4.40;;;;;;;33.60;37.72;99800.92;104016;276;38499;-75
2023/08/27 10:08:19;;;;;;;5.50;4.00;;;;;;;33.19;38.08;99794.89;104034;275;38659;-75
2023/08/27 10:10:54;;;;;;;5.20;4.70;;;;;;;32.82;38.69;99790.28;104034;276;38521;-74
2023/08/27 10:13:28;;;;;;;5.30;4.30;;;;;;;32.47;39.75;99790.25;104065;275;39391;-73
2023/08/27 10:16:01;;;;;;;4.60;4.10;;;;;;;32.16;40.27;99790.55;104014;276;39401;-74
2023/08/27 10:18:36;;;;;;;4.80;4.20;;;;;;;31.96;40.58;99798.21;104050;276;38440;-74
2023/08/27 10:21:10;;;;;;;4.50;4.00;;;;;;;31.84;41.22;99797.61;104073;276;38282;-74
2023/08/27 10:23:46;;;;;;;5.00;4.50;;;;;;;31.76;41.30;99792.54;104078;276;38420;-73
2023/08/27 10:26:20;;;;;;;5.60;4.00;;;;;;;31.76;41.72;99783.82;103994;276;40014;-73
2023/08/27 10:28:54;;;;;;;4.70;4.30;;;;;;;31.77;41.95;99785.34;104004;275;39000;-73
2023/08/27 10:31:28;;;;;;;6.50;4.30;;;;;;;31.75;42.47;99784.70;104019;275;38854;-74
2023/08/27 10:34:02;;;;;;;7.50;4.70;;;;;;;31.84;42.55;99784.59;104044;276;38554;-75
2023/08/27 10:36:43;;;;;;;4.70;4.20;;;;;;;31.94;42.22;99784.00;104000;275;38667;-75
2023/08/27 10:39:20;;;;;;;5.60;3.90;;;;;;;31.98;42.14;99787.00;104071;275;39411;-74
2023/08/27 10:41:55;;;;;;;5.20;3.80;;;;;;;31.97;42.06;99785.70;104056;276;38259;-74
2023/08/27 10:44:29;;;;;;;4.70;4.00;;;;;;;31.90;42.00;99785.72;104056;276;39686;-74
2023/08/27 10:47:14;;;;;;;5.10;4.30;;;;;;;31.75;41.70;99784.88;104034;275;38530;-74
2023/08/27 10:49:50;;;;;;;4.20;3.80;;;;;;;31.49;41.73;99770.46;104022;276;38304;-73
2023/08/27 10:52:27;;;;;;;5.20;3.60;;;;;;;31.27;42.43;99757.72;104083;276;38768;-74
2023/08/27 10:55:04;;;;;;;4.90;3.80;;;;;;;31.28;43.42;99758.08;104012;275;39938;-74
2023/08/27 10:57:38;;;;;;;4.70;3.80;;;;;;;31.33;43.21;99762.08;104094;276;38577;-74
2023/08/27 11:00:15;;;;;;;4.30;3.90;;;;;;;31.31;42.52;99763.40;104024;265;38591;-73
2023/08/27 11:03:15;;;;;;;5.20;3.80;;;;;;;31.31;42.48;99767.75;104094;276;38404;-74
2023/08/27 11:05:49;;;;;;;3.70;3.20;;;;;;;31.33;42.71;99764.27;104028;275;39705;-74
2023/08/27 11:08:35;;;;;;;4.80;3.70;;;;;;;31.30;42.01;99765.02;104039;276;38326;-74
2023/08/27 11:11:16;;;;;;;4.20;3.80;;;;;;;31.19;42.23;99748.47;104052;275;39691;-74
2023/08/27 11:13:50;;;;;;;5.10;4.00;;;;;;;31.12;42.93;99753.58;104072;265;38558;-73
2023/08/27 11:16:24;;;;;;;4.20;3.80;;;;;;;31.04;43.23;99759.64;103994;275;39643;-74
2023/08/27 11:18:58;;;;;;;4.80;4.30;;;;;;;30.98;43.36;99750.23;104070;275;38414;-74
2023/08/27 11:21:54;;;;;;;4.40;4.00;;;;;;;30.88;43.71;99753.02;103986;275;39387;-74
2023/08/27 11:24:28;;;;;;;5.60;4.10;;;;;;;30.77;43.61;99758.39;104099;275;38931;-74
2023/08/27 11:27:03;;;;;;;4.30;3.90;;;;;;;30.75;44.18;99753.73;104076;275;39708;-74
2023/08/27 11:29:40;;;;;;;4.20;3.70;;;;;;;30.81;44.31;99751.42;104085;276;38402;-74
2023/08/27 11:32:14;;;;;;;5.00;4.20;;;;;;;30.88;44.78;99754.54;103879;276;39290;-73
2023/08/27 11:34:49;;;;;;;4.20;3.80;;;;;;;30.85;44.92;99757.20;104006;275;39393;-73
2023/08/27 11:37:32;;;;;;;4.10;3.70;;;;;;;30.77;44.33;99755.69;104068;275;39424;-74
2023/08/27 11:40:15;;;;;;;4.30;3.70;;;;;;;30.69;44.24;99751.03;104036;275;38758;-73
2023/08/27 11:42:56;;;;;;;5.50;3.90;;;;;;;30.56;44.14;99746.34;104107;276;39694;-74
2023/08/27 11:45:38;;;;;;;4.40;3.40;;;;;;;30.39;44.82;99732.83;104065;276;39958;-74
2023/08/27 11:48:13;;;;;;;6.30;3.70;;;;;;;30.20;45.36;99727.14;104020;276;39561;-74
2023/08/27 11:50:48;;;;;;;4.30;3.90;;;;;;;30.06;45.54;99720.54;103957;276;39798;-74
2023/08/27 11:53:22;;;;;;;4.50;4.10;;;;;;;30.05;45.63;99706.96;104075;276;38271;-74
2023/08/27 11:55:56;;;;;;;3.90;3.50;;;;;;;30.12;46.27;99699.60;103836;276;39634;-74
2023/08/27 11:58:32;;;;;;;5.30;4.10;;;;;;;30.18;45.74;99707.54;103867;277;38241;-73
2023/08/27 12:01:07;;;;;;;5.00;4.00;;;;;;;30.21;44.93;99707.72;104049;275;38259;-73
2023/08/27 12:03:41;;;;;;;4.20;3.80;;;;;;;30.19;45.21;99711.04;104057;276;39409;-73
2023/08/27 12:06:20;;;;;;;4.00;3.60;;;;;;;30.23;45.65;99717.85;104011;276;38413;-74